createdAt,value
2019-01-20T00:00:40.203Z,100049.41
2019-01-20T00:03:08.542Z,100051.08
2019-01-20T00:05:36.872Z,100055.58
2019-01-20T00:08:05.832Z,100046.78
2019-01-20T00:10:34.190Z,100049.84
2019-01-20T00:13:02.611Z,100045.66
2019-01-20T00:15:31.139Z,100045.06
2019-01-20T00:18:00.053Z,100050.59
2019-01-20T00:20:28.466Z,100045.33
2019-01-20T00:22:56.911Z,100048.44
2019-01-20T00:25:25.350Z,100049.28
2019-01-20T00:27:53.678Z,100050.95
2019-01-20T00:30:22.258Z,100052.62
2019-01-20T00:32:50.610Z,100047.72
2019-01-20T00:35:19.028Z,100047.25
2019-01-20T00:37:47.409Z,100047.31
2019-01-20T00:40:16.513Z,100049.34
2019-01-20T00:42:45.299Z,100045.99
2019-01-20T00:45:16.193Z,100044.98
2019-01-20T00:47:44.627Z,100044.26
2019-01-20T00:50:16.317Z,100046.37
2019-01-20T00:52:44.813Z,100043.54
2019-01-20T00:55:17.418Z,100037.94
2019-01-20T00:57:45.916Z,100039.92
2019-01-20T01:00:19.420Z,100040.03
2019-01-20T01:02:48.109Z,100040.11
2019-01-20T01:05:17.277Z,100048.34
2019-01-20T01:07:46.135Z,100040.27
2019-01-20T01:10:15.685Z,100041.94
2019-01-20T01:12:44.195Z,100044.41
2019-01-20T01:15:13.456Z,100041.22
2019-01-20T01:17:41.879Z,100049.47
2019-01-20T01:20:14.014Z,100048.39
2019-01-20T01:22:42.521Z,100052.87
2019-01-20T01:25:12.880Z,100048.26
2019-01-20T01:27:41.754Z,100054.59
2019-01-20T01:30:14.726Z,100055.48
2019-01-20T01:32:43.181Z,100056.49
2019-01-20T01:35:12.686Z,100059.36
2019-01-20T01:37:41.089Z,100056.20
2019-01-20T01:40:11.875Z,100058.17
2019-01-20T01:42:40.270Z,100059.59
2019-01-20T01:45:13.906Z,100062.89
2019-01-20T01:47:42.241Z,100065.44
2019-01-20T01:50:12.207Z,100070.58
2019-01-20T01:52:40.517Z,100070.08
2019-01-20T01:55:10.205Z,100070.33
2019-01-20T01:57:38.519Z,100065.42
2019-01-20T02:00:12.577Z,100059.45
2019-01-20T02:02:40.928Z,100058.94
2019-01-20T02:05:09.653Z,100062.45
2019-01-20T02:07:38.102Z,100067.59
2019-01-20T02:10:10.006Z,100058.52
2019-01-20T02:12:38.417Z,100057.27
2019-01-20T02:15:08.956Z,100065.06
2019-01-20T02:17:37.289Z,100064.18
2019-01-20T02:20:09.218Z,100064.07
2019-01-20T02:22:37.582Z,100065.25
2019-01-20T02:25:06.337Z,100061.51
2019-01-20T02:27:35.730Z,100064.00
2019-01-20T02:30:09.013Z,100069.77
2019-01-20T02:32:37.627Z,100063.68
2019-01-20T02:35:06.122Z,100062.92
2019-01-20T02:37:34.460Z,100066.15
2019-01-20T02:40:04.846Z,100068.61
2019-01-20T02:42:33.165Z,100061.67
2019-01-20T02:45:01.575Z,100063.54
2019-01-20T02:47:29.890Z,100064.36
2019-01-20T02:49:58.232Z,100060.78
2019-01-20T02:52:26.557Z,100064.23
2019-01-20T02:54:54.901Z,100054.41
2019-01-20T02:57:23.250Z,100061.27
2019-01-20T02:59:51.609Z,100058.09
2019-01-20T03:02:20.036Z,100063.68
2019-01-20T03:04:48.418Z,100059.55
2019-01-20T03:07:16.737Z,100063.16
2019-01-20T03:09:45.086Z,100055.52
2019-01-20T03:12:13.568Z,100056.31
2019-01-20T03:14:41.940Z,100059.34
2019-01-20T03:17:10.721Z,100050.55
2019-01-20T03:19:39.072Z,100048.92
2019-01-20T03:22:07.413Z,100045.16
2019-01-20T03:24:35.788Z,100046.54
2019-01-20T03:27:04.292Z,100042.00
2019-01-20T03:29:32.635Z,100046.41
2019-01-20T03:32:00.967Z,100040.21
2019-01-20T03:34:29.367Z,100043.73
2019-01-20T03:36:58.806Z,100040.63
2019-01-20T03:39:27.114Z,100045.14
2019-01-20T03:41:55.548Z,100038.18
2019-01-20T03:44:23.893Z,100036.73
2019-01-20T03:46:52.268Z,100037.27
2019-01-20T03:49:20.606Z,100034.37
2019-01-20T03:51:49.009Z,100043.18
2019-01-20T03:54:17.761Z,100041.39
2019-01-20T03:56:46.110Z,100041.92
2019-01-20T03:59:14.520Z,100040.37
2019-01-20T04:01:42.895Z,100042.34
2019-01-20T04:04:11.565Z,100042.47
2019-01-20T04:06:39.894Z,100038.11
2019-01-20T04:09:08.401Z,100041.95
2019-01-20T04:11:36.792Z,100049.92
2019-01-20T04:14:05.309Z,100046.94
2019-01-20T04:16:33.680Z,100043.66
2019-01-20T04:19:01.996Z,100054.40
2019-01-20T04:21:30.338Z,100044.64
2019-01-20T04:23:58.680Z,100042.94
2019-01-20T04:26:27.022Z,100047.34
2019-01-20T04:28:55.354Z,100050.34
2019-01-20T04:31:23.728Z,100051.41
2019-01-20T04:33:52.067Z,100047.30
2019-01-20T04:36:20.473Z,100044.37
2019-01-20T04:38:48.795Z,100044.58
2019-01-20T04:41:17.125Z,100047.76
2019-01-20T04:43:45.462Z,100050.30
2019-01-20T04:46:13.794Z,100049.99
2019-01-20T04:48:42.154Z,100048.62
2019-01-20T04:51:11.110Z,100050.19
2019-01-20T04:53:40.053Z,100054.42
2019-01-20T04:56:08.460Z,100052.47
2019-01-20T04:58:36.962Z,100048.52
2019-01-20T05:01:05.280Z,100048.57
2019-01-20T05:03:33.612Z,100050.72
2019-01-20T05:06:01.999Z,100054.29
2019-01-20T05:08:30.363Z,100056.94
2019-01-20T05:10:58.711Z,100058.50
2019-01-20T05:13:27.078Z,100053.53
2019-01-20T05:15:55.440Z,100052.44
2019-01-20T05:18:23.800Z,100050.02
2019-01-20T05:20:52.154Z,100055.42
2019-01-20T05:23:20.515Z,100054.50
2019-01-20T05:25:48.841Z,100051.23
2019-01-20T05:28:17.208Z,100055.05
2019-01-20T05:30:45.526Z,100051.72
2019-01-20T05:33:13.875Z,100061.05
2019-01-20T05:35:42.211Z,100050.13
2019-01-20T05:38:11.074Z,100051.54
2019-01-20T05:40:39.425Z,100053.06
2019-01-20T05:43:07.794Z,100052.44
2019-01-20T05:45:36.266Z,100051.58
2019-01-20T05:48:04.809Z,100056.70
2019-01-20T05:50:33.156Z,100049.02
2019-01-20T05:53:01.488Z,100062.02
2019-01-20T05:55:29.834Z,100061.87
2019-01-20T05:57:58.180Z,100058.34
2019-01-20T06:00:28.220Z,100061.35
2019-01-20T06:02:56.624Z,100063.33
2019-01-20T06:05:24.959Z,100065.07
2019-01-20T06:07:53.313Z,100071.41
2019-01-20T06:10:21.750Z,100069.80
2019-01-20T06:12:54.277Z,100080.13
2019-01-20T06:15:22.142Z,100079.66
2019-01-20T06:17:50.540Z,100080.45
2019-01-20T06:20:18.937Z,100083.33
2019-01-20T06:22:47.399Z,100086.72
2019-01-20T06:25:15.767Z,100080.86
2019-01-20T06:27:44.810Z,100089.77
2019-01-20T06:30:18.713Z,100084.28
2019-01-20T06:32:47.093Z,100091.41
2019-01-20T06:35:15.510Z,100087.52
2019-01-20T06:37:43.879Z,100082.61
2019-01-20T06:40:13.569Z,100089.16
2019-01-20T06:42:41.938Z,100088.11
2019-01-20T06:45:13.639Z,100098.32
2019-01-20T06:47:42.117Z,100091.60
2019-01-20T06:50:12.713Z,100099.77
2019-01-20T06:52:41.144Z,100105.16
2019-01-20T06:55:11.465Z,100106.16
2019-01-20T06:57:39.780Z,100108.31
2019-01-20T07:00:13.068Z,100112.91
2019-01-20T07:02:41.414Z,100108.93
2019-01-20T07:05:10.324Z,100109.51
2019-01-20T07:07:38.748Z,100120.56
2019-01-20T07:10:10.852Z,100126.50
2019-01-20T07:12:39.168Z,100119.96
2019-01-20T07:15:11.415Z,100132.47
2019-01-20T07:17:39.746Z,100130.24
2019-01-20T07:20:09.864Z,100133.44
2019-01-20T07:22:38.211Z,100132.95
2019-01-20T07:25:09.852Z,100140.20
2019-01-20T07:27:38.161Z,100148.21
2019-01-20T07:30:09.059Z,100141.45
2019-01-20T07:32:37.483Z,100143.16
2019-01-20T07:35:08.516Z,100147.50
2019-01-20T07:37:36.833Z,100150.92
2019-01-20T07:40:09.277Z,100153.47
2019-01-20T07:42:37.724Z,100153.78
2019-01-20T07:45:10.677Z,100156.58
2019-01-20T07:47:39.163Z,100158.38
2019-01-20T07:50:12.756Z,100170.47
2019-01-20T07:52:41.074Z,100168.36
2019-01-20T07:55:09.946Z,100167.59
2019-01-20T07:57:39.139Z,100175.95
2019-01-20T08:00:12.712Z,100175.92
2019-01-20T08:02:41.122Z,100175.34
2019-01-20T08:05:10.850Z,100180.29
2019-01-20T08:07:39.259Z,100183.45
2019-01-20T08:10:11.374Z,100183.88
2019-01-20T08:12:39.693Z,100185.33
2019-01-20T08:15:10.160Z,100196.50
2019-01-20T08:17:38.487Z,100188.63
2019-01-20T08:20:10.475Z,100193.66
2019-01-20T08:22:38.785Z,100196.76
2019-01-20T08:25:10.119Z,100200.21
2019-01-20T08:27:38.491Z,100203.79
2019-01-20T08:30:10.539Z,100210.81
2019-01-20T08:32:39.001Z,100208.17
2019-01-20T08:35:09.234Z,100209.94
2019-01-20T08:37:37.591Z,100213.42
2019-01-20T08:40:11.183Z,100217.95
2019-01-20T08:42:40.209Z,100223.60
2019-01-20T08:45:15.217Z,100223.13
2019-01-20T08:47:45.182Z,100224.14
2019-01-20T08:50:14.151Z,100232.51
2019-01-20T08:52:42.578Z,100231.98
2019-01-20T08:55:11.348Z,100231.92
2019-01-20T08:57:39.724Z,100232.23
2019-01-20T09:00:12.669Z,100231.61
2019-01-20T09:02:41.028Z,100235.27
2019-01-20T09:05:10.753Z,100240.45
2019-01-20T09:07:39.303Z,100242.55
2019-01-20T09:10:11.235Z,100246.44
2019-01-20T09:12:40.310Z,100249.05
2019-01-20T09:15:08.863Z,100251.69
2019-01-20T09:17:37.420Z,100249.78
2019-01-20T09:20:10.071Z,100254.81
2019-01-20T09:22:38.417Z,100256.80
2019-01-20T09:25:10.120Z,100261.91
2019-01-20T09:27:38.470Z,100260.30
2019-01-20T09:30:15.326Z,100263.45
2019-01-20T09:32:44.969Z,100262.13
2019-01-20T09:35:13.550Z,100268.39
2019-01-20T09:37:42.052Z,100261.77
2019-01-20T09:40:12.111Z,100273.14
2019-01-20T09:42:40.910Z,100266.81
2019-01-20T09:45:15.553Z,100275.41
2019-01-20T09:47:44.118Z,100280.47
2019-01-20T09:50:12.597Z,100276.66
2019-01-20T09:52:41.189Z,100278.28
2019-01-20T09:55:11.422Z,100278.25
2019-01-20T09:57:39.983Z,100283.53
2019-01-20T10:00:12.658Z,100283.09
2019-01-20T10:02:41.151Z,100283.93
2019-01-20T10:05:10.649Z,100283.41
2019-01-20T10:07:39.112Z,100282.16
2019-01-20T10:10:11.791Z,100289.55
2019-01-20T10:12:40.682Z,100284.84
2019-01-20T10:15:12.927Z,100284.64
2019-01-20T10:17:41.408Z,100288.59
2019-01-20T10:20:15.614Z,100289.70
2019-01-20T10:22:44.163Z,100292.56
2019-01-20T10:25:15.124Z,100292.17
2019-01-20T10:27:43.086Z,100290.14
2019-01-20T10:30:13.578Z,100293.79
2019-01-20T10:32:41.956Z,100285.32
2019-01-20T10:35:11.094Z,100288.20
2019-01-20T10:37:39.427Z,100280.42
2019-01-20T10:40:08.575Z,100283.92
2019-01-20T10:42:36.979Z,100286.84
2019-01-20T10:45:09.576Z,100293.64
2019-01-20T10:47:37.951Z,100288.55
2019-01-20T10:50:11.005Z,100288.23
2019-01-20T10:52:39.387Z,100280.34
2019-01-20T10:55:08.629Z,100281.97
2019-01-20T10:57:37.285Z,100290.00
2019-01-20T11:00:11.293Z,100290.75
2019-01-20T11:02:39.705Z,100289.86
2019-01-20T11:05:09.862Z,100285.14
2019-01-20T11:07:38.267Z,100285.22
2019-01-20T11:10:10.438Z,100290.80
2019-01-20T11:12:38.870Z,100293.08
2019-01-20T11:15:11.226Z,100292.95
2019-01-20T11:17:39.593Z,100289.16
2019-01-20T11:20:11.510Z,100294.87
2019-01-20T11:22:39.914Z,100296.66
2019-01-20T11:25:10.266Z,100294.27
2019-01-20T11:27:38.581Z,100291.54
2019-01-20T11:30:10.302Z,100293.59
2019-01-20T11:32:42.431Z,100290.96
2019-01-20T11:35:14.840Z,100295.16
2019-01-20T11:37:43.459Z,100291.81
2019-01-20T11:40:13.430Z,100286.20
2019-01-20T11:42:41.990Z,100292.91
2019-01-20T11:45:17.698Z,100290.50
2019-01-20T11:47:46.116Z,100291.35
2019-01-20T11:50:15.280Z,100286.69
2019-01-20T11:52:43.786Z,100288.47
2019-01-20T11:55:15.671Z,100290.88
2019-01-20T11:57:44.066Z,100284.16
2019-01-20T12:00:15.885Z,100286.45
2019-01-20T12:02:44.373Z,100283.46
2019-01-20T12:05:13.461Z,100284.53
2019-01-20T12:07:41.874Z,100284.28
2019-01-20T12:10:11.223Z,100284.36
2019-01-20T12:12:40.378Z,100286.66
2019-01-20T12:15:11.968Z,100283.89
2019-01-20T12:17:40.456Z,100286.17
2019-01-20T12:20:11.168Z,100289.78
2019-01-20T12:22:39.567Z,100280.20
2019-01-20T12:25:13.503Z,100282.42
2019-01-20T12:27:41.853Z,100276.62
2019-01-20T12:30:14.506Z,100284.64
2019-01-20T12:32:42.930Z,100283.92
2019-01-20T12:35:11.625Z,100287.45
2019-01-20T12:37:39.972Z,100285.80
2019-01-20T12:40:12.811Z,100283.97
2019-01-20T12:42:41.138Z,100284.78
2019-01-20T12:45:10.030Z,100289.19
2019-01-20T12:47:38.461Z,100285.09
2019-01-20T12:50:10.120Z,100284.26
2019-01-20T12:52:38.427Z,100290.66
2019-01-20T12:55:07.855Z,100282.84
2019-01-20T12:57:36.531Z,100289.27
2019-01-20T13:00:09.862Z,100289.89
2019-01-20T13:02:38.456Z,100283.98
2019-01-20T13:05:07.617Z,100282.98
2019-01-20T13:07:36.134Z,100281.84
2019-01-20T13:10:08.408Z,100286.19
2019-01-20T13:12:36.881Z,100281.05
2019-01-20T13:15:09.034Z,100278.66
2019-01-20T13:17:37.442Z,100282.36
2019-01-20T13:20:09.925Z,100279.23
2019-01-20T13:22:38.330Z,100276.20
2019-01-20T13:25:08.721Z,100280.20
2019-01-20T13:27:37.138Z,100278.96
2019-01-20T13:30:08.385Z,100278.89
2019-01-20T13:32:36.727Z,100269.83
2019-01-20T13:35:08.660Z,100267.87
2019-01-20T13:37:40.317Z,100267.24
2019-01-20T13:40:16.038Z,100264.03
2019-01-20T13:42:44.430Z,100270.45
2019-01-20T13:45:13.309Z,100272.23
2019-01-20T13:47:48.501Z,100275.14
2019-01-20T13:50:15.868Z,100270.80
2019-01-20T13:52:44.315Z,100267.87
2019-01-20T13:55:14.268Z,100262.18
2019-01-20T13:57:42.676Z,100264.19
2019-01-20T14:00:14.518Z,100272.15
2019-01-20T14:02:42.941Z,100278.08
2019-01-20T14:05:11.393Z,100276.55
2019-01-20T14:07:39.754Z,100269.25
2019-01-20T14:10:12.457Z,100269.74
2019-01-20T14:12:40.892Z,100277.78
2019-01-20T14:15:11.864Z,100274.89
2019-01-20T14:17:40.209Z,100277.05
2019-01-20T14:20:12.066Z,100279.69
2019-01-20T14:22:40.412Z,100279.82
2019-01-20T14:25:10.611Z,100281.55
2019-01-20T14:27:39.496Z,100286.13
2019-01-20T14:30:11.399Z,100291.97
2019-01-20T14:32:39.778Z,100291.69
2019-01-20T14:35:09.412Z,100295.73
2019-01-20T14:37:37.782Z,100301.62
2019-01-20T14:40:10.308Z,100298.63
2019-01-20T14:42:38.658Z,100288.58
2019-01-20T14:45:10.168Z,100294.67
2019-01-20T14:47:38.498Z,100294.03
2019-01-20T14:50:09.679Z,100288.89
2019-01-20T14:52:38.023Z,100298.16
2019-01-20T14:55:09.341Z,100293.95
2019-01-20T14:57:37.892Z,100292.33
2019-01-20T15:00:21.330Z,100294.45
2019-01-20T15:02:49.773Z,100292.91
2019-01-20T15:05:18.279Z,100297.87
2019-01-20T15:07:46.686Z,100296.83
2019-01-20T15:10:15.985Z,100300.58
2019-01-20T15:12:44.382Z,100299.95
2019-01-20T15:15:17.185Z,100305.19
2019-01-20T15:17:45.645Z,100302.09
2019-01-20T15:20:14.665Z,100305.73
2019-01-20T15:22:43.068Z,100311.08
2019-01-20T15:25:14.153Z,100313.84
2019-01-20T15:27:42.622Z,100315.77
2019-01-20T15:30:16.093Z,100313.58
2019-01-20T15:32:44.527Z,100319.89
2019-01-20T15:35:13.042Z,100315.02
2019-01-20T15:37:41.383Z,100318.86
2019-01-20T15:40:13.974Z,100324.37
2019-01-20T15:42:43.080Z,100321.06
2019-01-20T15:45:16.494Z,100320.92
2019-01-20T15:47:44.864Z,100325.59
2019-01-20T15:50:16.777Z,100322.86
2019-01-20T15:52:45.211Z,100331.09
2019-01-20T15:55:13.909Z,100334.33
2019-01-20T15:57:42.212Z,100329.99
2019-01-20T16:00:15.700Z,100332.73
2019-01-20T16:02:44.094Z,100341.13
2019-01-20T16:05:12.554Z,100341.98
2019-01-20T16:07:40.915Z,100342.36
2019-01-20T16:10:12.015Z,100346.91
2019-01-20T16:12:40.518Z,100344.97
2019-01-20T16:15:13.653Z,100352.89
2019-01-20T16:17:42.369Z,100354.70
2019-01-20T16:20:14.902Z,100359.73
2019-01-20T16:22:43.372Z,100366.81
2019-01-20T16:25:15.802Z,100370.75
2019-01-20T16:27:44.200Z,100370.64
2019-01-20T16:30:16.363Z,100371.36
2019-01-20T16:32:44.714Z,100371.47
2019-01-20T16:35:13.512Z,100376.63
2019-01-20T16:37:41.907Z,100377.58
2019-01-20T16:40:14.795Z,100385.46
2019-01-20T16:42:43.142Z,100384.74
2019-01-20T16:45:15.218Z,100388.92
2019-01-20T16:47:43.677Z,100392.87
2019-01-20T16:50:16.523Z,100394.19
2019-01-20T16:52:45.237Z,100393.14
2019-01-20T16:55:14.982Z,100401.52
2019-01-20T16:58:09.516Z,100406.77
2019-01-20T17:00:39.994Z,100401.14
2019-01-20T17:03:08.409Z,100409.17
2019-01-20T17:05:37.017Z,100409.28
2019-01-20T17:08:05.581Z,100410.95
2019-01-20T17:10:36.362Z,100415.89
2019-01-20T17:13:05.130Z,100414.92
2019-01-20T17:15:39.873Z,100419.24
2019-01-20T17:18:08.137Z,100426.08
2019-01-20T17:20:36.537Z,100427.98
2019-01-20T17:23:04.964Z,100430.50
2019-01-20T17:25:33.370Z,100433.02
2019-01-20T17:28:01.777Z,100442.95
2019-01-20T17:30:34.017Z,100439.75
2019-01-20T17:33:02.747Z,100439.73
2019-01-20T17:35:31.097Z,100442.86
2019-01-20T17:37:59.566Z,100441.37
2019-01-20T17:40:28.862Z,100451.78
2019-01-20T17:42:57.290Z,100451.06
2019-01-20T17:45:27.538Z,100451.16
2019-01-20T17:47:55.953Z,100450.31
2019-01-20T17:50:27.133Z,100456.50
2019-01-20T17:52:55.587Z,100462.04
2019-01-20T17:55:24.009Z,100464.19
2019-01-20T17:57:52.433Z,100465.21
2019-01-20T18:00:24.260Z,100466.58
2019-01-20T18:02:52.710Z,100472.67
2019-01-20T18:05:24.597Z,100474.59
2019-01-20T18:07:53.091Z,100473.75
2019-01-20T18:10:21.591Z,100478.42
2019-01-20T18:12:50.002Z,100485.44
2019-01-20T18:15:21.199Z,100483.08
2019-01-20T18:17:49.631Z,100490.70
2019-01-20T18:20:20.310Z,100492.02
2019-01-20T18:22:48.747Z,100498.40
2019-01-20T18:25:18.294Z,100500.73
2019-01-20T18:27:46.678Z,100505.39
2019-01-20T18:30:16.761Z,100507.38
2019-01-20T18:32:45.171Z,100505.30
2019-01-20T18:35:14.557Z,100508.98
2019-01-20T18:37:43.812Z,100516.39
2019-01-20T18:40:14.910Z,100516.30
2019-01-20T18:42:43.521Z,100519.64
2019-01-20T18:45:14.549Z,100526.28
2019-01-20T18:47:43.607Z,100527.09
2019-01-20T18:50:15.408Z,100533.98
2019-01-20T18:52:43.841Z,100528.32
2019-01-20T18:55:15.095Z,100525.37
2019-01-20T18:57:44.867Z,100529.67
2019-01-20T19:00:16.954Z,100529.84
2019-01-20T19:02:45.298Z,100537.28
2019-01-20T19:05:17.193Z,100539.61
2019-01-20T19:07:45.709Z,100542.41
2019-01-20T19:10:15.713Z,100536.59
2019-01-20T19:12:44.181Z,100543.39
2019-01-20T19:15:16.076Z,100546.16
2019-01-20T19:17:44.479Z,100545.33
2019-01-20T19:20:14.363Z,100554.16
2019-01-20T19:22:42.751Z,100560.66
2019-01-20T19:25:13.137Z,100555.78
2019-01-20T19:27:41.514Z,100565.58
2019-01-20T19:30:14.807Z,100571.94
2019-01-20T19:32:43.144Z,100570.70
2019-01-20T19:35:12.359Z,100577.42
2019-01-20T19:37:40.686Z,100581.23
2019-01-20T19:40:12.228Z,100583.30
2019-01-20T19:42:40.786Z,100584.42
2019-01-20T19:45:12.367Z,100582.63
2019-01-20T19:47:40.756Z,100589.87
2019-01-20T19:50:11.739Z,100587.53
2019-01-20T19:52:40.328Z,100599.83
2019-01-20T19:55:11.630Z,100590.59
2019-01-20T19:57:40.095Z,100597.75
2019-01-20T20:00:12.788Z,100593.33
2019-01-20T20:02:41.228Z,100591.27
2019-01-20T20:05:13.451Z,100596.46
2019-01-20T20:07:41.873Z,100608.37
2019-01-20T20:10:15.010Z,100600.52
2019-01-20T20:12:43.365Z,100599.84
2019-01-20T20:15:15.630Z,100605.78
2019-01-20T20:17:44.000Z,100610.73
2019-01-20T20:20:15.465Z,100608.36
2019-01-20T20:22:43.888Z,100608.30
2019-01-20T20:25:14.850Z,100618.39
2019-01-20T20:27:43.470Z,100612.40
2019-01-20T20:30:15.027Z,100619.19
2019-01-20T20:32:43.542Z,100619.98
2019-01-20T20:35:13.114Z,100629.01
2019-01-20T20:37:41.573Z,100636.03
2019-01-20T20:40:12.957Z,100628.97
2019-01-20T20:42:41.394Z,100627.94
2019-01-20T20:45:11.753Z,100627.55
2019-01-20T20:47:40.160Z,100633.80
2019-01-20T20:50:11.863Z,100627.56
2019-01-20T20:52:45.909Z,100634.27
2019-01-20T20:55:11.296Z,100641.21
2019-01-20T20:57:39.633Z,100637.48
2019-01-20T21:00:12.988Z,100640.13
2019-01-20T21:02:41.394Z,100643.36
2019-01-20T21:05:10.049Z,100646.84
2019-01-20T21:07:38.457Z,100646.68
2019-01-20T21:10:12.621Z,100649.88
2019-01-20T21:12:40.956Z,100652.62
2019-01-20T21:15:12.359Z,100655.42
2019-01-20T21:17:47.919Z,100660.90
2019-01-20T21:20:13.843Z,100658.48
2019-01-20T21:22:42.178Z,100658.95
2019-01-20T21:25:11.931Z,100664.60
2019-01-20T21:27:40.338Z,100669.06
2019-01-20T21:30:17.708Z,100670.61
2019-01-20T21:32:46.037Z,100673.06
2019-01-20T21:35:15.716Z,100678.86
2019-01-20T21:37:44.083Z,100679.45
2019-01-20T21:40:15.499Z,100675.25
2019-01-20T21:42:43.925Z,100681.83
2019-01-20T21:45:14.533Z,100688.39
2019-01-20T21:47:42.962Z,100692.13
2019-01-20T21:50:18.180Z,100695.27
2019-01-20T21:52:46.755Z,100699.66
2019-01-20T21:55:15.464Z,100696.78
2019-01-20T21:57:43.943Z,100703.72
2019-01-20T22:00:16.327Z,100704.34
2019-01-20T22:02:44.859Z,100706.89
2019-01-20T22:05:13.915Z,100712.95
2019-01-20T22:07:42.518Z,100709.06
2019-01-20T22:10:14.082Z,100716.00
2019-01-20T22:12:42.611Z,100713.22
2019-01-20T22:15:12.027Z,100715.80
2019-01-20T22:17:40.537Z,100704.41
2019-01-20T22:20:12.608Z,100713.54
2019-01-20T22:22:41.377Z,100716.38
2019-01-20T22:25:10.750Z,100719.38
2019-01-20T22:27:39.357Z,100721.42
2019-01-20T22:30:11.185Z,100720.89
2019-01-20T22:32:39.556Z,100728.37
2019-01-20T22:35:10.925Z,100737.03
2019-01-20T22:37:39.434Z,100740.73
2019-01-20T22:40:09.806Z,100749.66
2019-01-20T22:42:38.337Z,100747.88
2019-01-20T22:45:11.348Z,100751.14
2019-01-20T22:47:39.663Z,100756.13
2019-01-20T22:50:12.514Z,100755.47
2019-01-20T22:52:41.171Z,100755.17
2019-01-20T22:55:11.673Z,100753.96
2019-01-20T22:57:41.285Z,100757.73
2019-01-20T23:00:13.214Z,100756.52
2019-01-20T23:02:42.322Z,100757.73
2019-01-20T23:05:11.305Z,100756.80
2019-01-20T23:07:40.145Z,100758.47
2019-01-20T23:10:08.946Z,100764.73
2019-01-20T23:12:38.410Z,100763.53
2019-01-20T23:15:09.831Z,100767.16
2019-01-20T23:17:38.137Z,100767.10
2019-01-20T23:20:11.943Z,100766.44
2019-01-20T23:22:41.434Z,100771.70
2019-01-20T23:25:10.457Z,100779.00
2019-01-20T23:27:38.838Z,100783.75
2019-01-20T23:30:11.428Z,100784.83
2019-01-20T23:32:40.270Z,100778.80
2019-01-20T23:35:08.782Z,100781.81
2019-01-20T23:37:37.182Z,100786.31
2019-01-20T23:40:10.177Z,100787.16
2019-01-20T23:42:38.521Z,100788.25
2019-01-20T23:45:10.144Z,100784.96
2019-01-20T23:47:38.619Z,100785.72
2019-01-20T23:50:09.424Z,100792.66
2019-01-20T23:52:37.867Z,100790.16
2019-01-20T23:55:07.770Z,100788.72
2019-01-20T23:57:36.130Z,100787.47
